sensor_id;sensor_type;location;lat;lon;timestamp;pressure;altitude;pressure_sealevel;temperature;humidity
30967;BME280;17649;51.836;8.330;2023-04-23T00:00:21;100223.59;;;13.88;nan
30967;BME280;17649;51.836;8.330;2023-04-23T00:03:22;100218.34;;;13.65;nan
30967;BME280;17649;51.836;8.330;2023-04-23T00:06:24;100213.97;;;13.66;nan
30967;BME280;17649;51.836;8.330;2023-04-23T00:09:26;100210.06;;;13.60;nan
30967;BME280;17649;51.836;8.330;2023-04-23T00:12:29;100206.59;;;13.49;nan
30967;BME280;17649;51.836;8.330;2023-04-23T00:15:30;100210.31;;;13.33;nan
30967;BME280;17649;51.836;8.330;2023-04-23T00:18:33;100202.28;;;13.36;nan
30967;BME280;17649;51.836;8.330;2023-04-23T00:21:36;100214.16;;;13.04;nan
30967;BME280;17649;51.836;8.330;2023-04-23T00:24:37;100217.22;;;13.22;nan
30967;BME280;17649;51.836;8.330;2023-04-23T00:27:38;100223.59;;;13.41;nan
30967;BME280;17649;51.836;8.330;2023-04-23T00:30:40;100218.97;;;13.21;nan
30967;BME280;17649;51.836;8.330;2023-04-23T00:33:41;100216.66;;;12.93;nan
30967;BME280;17649;51.836;8.330;2023-04-23T00:36:41;100214.53;;;12.87;nan
30967;BME280;17649;51.836;8.330;2023-04-23T00:39:42;100206.75;;;12.74;nan
30967;BME280;17649;51.836;8.330;2023-04-23T00:42:43;100207.22;;;12.68;nan
30967;BME280;17649;51.836;8.330;2023-04-23T00:45:44;100211.75;;;12.77;nan
30967;BME280;17649;51.836;8.330;2023-04-23T00:48:46;100217.50;;;12.57;nan
30967;BME280;17649;51.836;8.330;2023-04-23T00:51:46;100218.13;;;12.47;nan
30967;BME280;17649;51.836;8.330;2023-04-23T00:54:47;100221.38;;;12.26;nan
30967;BME280;17649;51.836;8.330;2023-04-23T00:57:47;100219.94;;;12.09;nan
30967;BME280;17649;51.836;8.330;2023-04-23T01:00:49;100219.50;;;12.15;nan
30967;BME280;17649;51.836;8.330;2023-04-23T01:03:51;100210.91;;;12.27;nan
30967;BME280;17649;51.836;8.330;2023-04-23T01:06:52;100209.03;;;12.04;nan
30967;BME280;17649;51.836;8.330;2023-04-23T01:09:53;100220.13;;;11.93;nan
30967;BME280;17649;51.836;8.330;2023-04-23T01:12:53;100218.66;;;11.89;nan
30967;BME280;17649;51.836;8.330;2023-04-23T01:15:57;100218.75;;;11.87;nan
30967;BME280;17649;51.836;8.330;2023-04-23T01:18:57;100218.25;;;11.82;nan
30967;BME280;17649;51.836;8.330;2023-04-23T01:21:59;100219.09;;;11.96;nan
30967;BME280;17649;51.836;8.330;2023-04-23T01:25:01;100230.28;;;11.83;nan
30967;BME280;17649;51.836;8.330;2023-04-23T01:28:02;100229.97;;;11.88;nan
30967;BME280;17649;51.836;8.330;2023-04-23T01:31:04;100226.06;;;11.68;nan
30967;BME280;17649;51.836;8.330;2023-04-23T01:34:04;100232.28;;;11.65;nan
30967;BME280;17649;51.836;8.330;2023-04-23T01:37:06;100232.28;;;11.65;nan
30967;BME280;17649;51.836;8.330;2023-04-23T01:40:07;100233.53;;;11.73;nan
30967;BME280;17649;51.836;8.330;2023-04-23T01:43:07;100239.88;;;11.42;nan
30967;BME280;17649;51.836;8.330;2023-04-23T01:46:08;100250.50;;;11.51;nan
30967;BME280;17649;51.836;8.330;2023-04-23T01:49:09;100256.09;;;11.58;nan
30967;BME280;17649;51.836;8.330;2023-04-23T01:52:10;100254.94;;;11.49;nan
30967;BME280;17649;51.836;8.330;2023-04-23T01:55:10;100237.84;;;11.47;nan
30967;BME280;17649;51.836;8.330;2023-04-23T01:58:11;100246.31;;;11.36;nan
30967;BME280;17649;51.836;8.330;2023-04-23T02:01:11;100248.00;;;11.23;nan
30967;BME280;17649;51.836;8.330;2023-04-23T02:04:13;100247.19;;;11.49;nan
30967;BME280;17649;51.836;8.330;2023-04-23T02:07:13;100242.00;;;11.49;nan
30967;BME280;17649;51.836;8.330;2023-04-23T02:10:14;100250.56;;;11.37;nan
30967;BME280;17649;51.836;8.330;2023-04-23T02:13:15;100249.31;;;11.16;nan
30967;BME280;17649;51.836;8.330;2023-04-23T02:16:15;100248.47;;;11.15;nan
30967;BME280;17649;51.836;8.330;2023-04-23T02:19:15;100253.97;;;11.38;nan
30967;BME280;17649;51.836;8.330;2023-04-23T02:22:16;100248.78;;;11.38;nan
30967;BME280;17649;51.836;8.330;2023-04-23T02:25:17;100253.56;;;11.31;nan
30967;BME280;17649;51.836;8.330;2023-04-23T02:28:18;100255.97;;;11.20;nan
30967;BME280;17649;51.836;8.330;2023-04-23T02:31:18;100254.78;;;11.11;nan
30967;BME280;17649;51.836;8.330;2023-04-23T02:34:19;100260.69;;;11.13;nan
30967;BME280;17649;51.836;8.330;2023-04-23T02:37:20;100251.34;;;11.25;nan
30967;BME280;17649;51.836;8.330;2023-04-23T02:40:20;100246.34;;;11.22;nan
30967;BME280;17649;51.836;8.330;2023-04-23T02:43:20;100240.66;;;11.17;nan
30967;BME280;17649;51.836;8.330;2023-04-23T02:46:21;100242.31;;;11.18;nan
30967;BME280;17649;51.836;8.330;2023-04-23T02:49:22;100255.28;;;11.03;nan
30967;BME280;17649;51.836;8.330;2023-04-23T02:52:22;100251.66;;;11.06;nan
30967;BME280;17649;51.836;8.330;2023-04-23T02:55:22;100254.63;;;11.00;nan
30967;BME280;17649;51.836;8.330;2023-04-23T02:58:24;100263.72;;;10.93;nan
30967;BME280;17649;51.836;8.330;2023-04-23T03:01:24;100263.78;;;11.05;nan
30967;BME280;17649;51.836;8.330;2023-04-23T03:04:25;100258.22;;;11.12;nan
30967;BME280;17649;51.836;8.330;2023-04-23T03:07:25;100247.66;;;11.15;nan
30967;BME280;17649;51.836;8.330;2023-04-23T03:10:25;100261.22;;;10.91;nan
30967;BME280;17649;51.836;8.330;2023-04-23T03:13:26;100260.00;;;10.97;nan
30967;BME280;17649;51.836;8.330;2023-04-23T03:16:27;100258.97;;;10.99;nan
30967;BME280;17649;51.836;8.330;2023-04-23T03:19:28;100271.31;;;10.82;nan
30967;BME280;17649;51.836;8.330;2023-04-23T03:22:28;100257.00;;;10.76;nan
30967;BME280;17649;51.836;8.330;2023-04-23T03:25:28;100254.41;;;10.76;nan
30967;BME280;17649;51.836;8.330;2023-04-23T03:28:30;100252.13;;;10.57;nan
30967;BME280;17649;51.836;8.330;2023-04-23T03:31:30;100251.09;;;10.74;nan
30967;BME280;17649;51.836;8.330;2023-04-23T03:34:30;100249.97;;;10.78;nan
30967;BME280;17649;51.836;8.330;2023-04-23T03:37:31;100257.16;;;10.87;nan
30967;BME280;17649;51.836;8.330;2023-04-23T03:40:31;100270.66;;;10.64;nan
30967;BME280;17649;51.836;8.330;2023-04-23T03:43:31;100279.25;;;10.50;nan
30967;BME280;17649;51.836;8.330;2023-04-23T03:46:32;100272.72;;;10.59;nan
30967;BME280;17649;51.836;8.330;2023-04-23T03:49:32;100267.63;;;10.57;nan
30967;BME280;17649;51.836;8.330;2023-04-23T03:52:32;100277.59;;;10.35;nan
30967;BME280;17649;51.836;8.330;2023-04-23T03:55:33;100274.91;;;10.36;nan
30967;BME280;17649;51.836;8.330;2023-04-23T03:58:33;100271.97;;;10.42;nan
30967;BME280;17649;51.836;8.330;2023-04-23T04:01:33;100263.66;;;10.37;nan
30967;BME280;17649;51.836;8.330;2023-04-23T04:04:35;100268.00;;;10.51;nan
30967;BME280;17649;51.836;8.330;2023-04-23T04:07:35;100264.13;;;10.44;nan
30967;BME280;17649;51.836;8.330;2023-04-23T04:10:36;100270.47;;;10.53;nan
30967;BME280;17649;51.836;8.330;2023-04-23T04:13:36;100266.63;;;10.45;nan
30967;BME280;17649;51.836;8.330;2023-04-23T04:16:37;100268.28;;;10.61;nan
30967;BME280;17649;51.836;8.330;2023-04-23T04:19:37;100263.28;;;10.58;nan
30967;BME280;17649;51.836;8.330;2023-04-23T04:22:37;100264.13;;;10.72;nan
30967;BME280;17649;51.836;8.330;2023-04-23T04:25:38;100252.38;;;10.67;nan
30967;BME280;17649;51.836;8.330;2023-04-23T04:28:39;100252.47;;;10.51;nan
30967;BME280;17649;51.836;8.330;2023-04-23T04:31:39;100254.97;;;10.38;nan
30967;BME280;17649;51.836;8.330;2023-04-23T04:34:40;100249.44;;;10.30;nan
30967;BME280;17649;51.836;8.330;2023-04-23T04:37:40;100258.47;;;10.23;nan
30967;BME280;17649;51.836;8.330;2023-04-23T04:40:42;100255.13;;;10.21;nan
30967;BME280;17649;51.836;8.330;2023-04-23T04:43:43;100255.44;;;10.31;nan
30967;BME280;17649;51.836;8.330;2023-04-23T04:46:44;100243.56;;;10.12;nan
30967;BME280;17649;51.836;8.330;2023-04-23T04:49:45;100244.19;;;10.02;nan
30967;BME280;17649;51.836;8.330;2023-04-23T04:52:45;100251.34;;;9.97;nan
30967;BME280;17649;51.836;8.330;2023-04-23T04:55:46;100257.31;;;9.99;nan
30967;BME280;17649;51.836;8.330;2023-04-23T04:58:46;100257.00;;;9.89;nan
30967;BME280;17649;51.836;8.330;2023-04-23T05:01:46;100261.19;;;9.76;nan
30967;BME280;17649;51.836;8.330;2023-04-23T05:04:47;100267.59;;;9.84;nan
30967;BME280;17649;51.836;8.330;2023-04-23T05:07:48;100262.19;;;10.03;nan
30967;BME280;17649;51.836;8.330;2023-04-23T05:10:48;100276.22;;;9.99;nan
30967;BME280;17649;51.836;8.330;2023-04-23T05:13:53;100281.66;;;10.09;nan
30967;BME280;17649;51.836;8.330;2023-04-23T05:16:53;100272.59;;;10.32;nan
30967;BME280;17649;51.836;8.330;2023-04-23T05:19:53;100271.59;;;10.34;nan
30967;BME280;17649;51.836;8.330;2023-04-23T05:22:54;100272.53;;;10.48;nan
30967;BME280;17649;51.836;8.330;2023-04-23T05:25:54;100260.41;;;10.62;nan
30967;BME280;17649;51.836;8.330;2023-04-23T05:28:56;100266.41;;;10.77;nan
30967;BME280;17649;51.836;8.330;2023-04-23T05:31:56;100267.44;;;10.89;nan
30967;BME280;17649;51.836;8.330;2023-04-23T05:34:57;100254.78;;;11.11;nan
30967;BME280;17649;51.836;8.330;2023-04-23T05:37:59;100245.53;;;11.21;nan
30967;BME280;17649;51.836;8.330;2023-04-23T05:41:00;100248.22;;;11.20;nan
30967;BME280;17649;51.836;8.330;2023-04-23T05:44:01;100245.63;;;11.20;nan
30967;BME280;17649;51.836;8.330;2023-04-23T05:47:01;100244.53;;;11.10;nan
30967;BME280;17649;51.836;8.330;2023-04-23T05:50:01;100249.38;;;11.01;nan
30967;BME280;17649;51.836;8.330;2023-04-23T05:53:02;100238.66;;;10.93;nan
30967;BME280;17649;51.836;8.330;2023-04-23T05:56:03;100250.88;;;10.91;nan
30967;BME280;17649;51.836;8.330;2023-04-23T05:59:03;100244.84;;;11.05;nan
30967;BME280;17649;51.836;8.330;2023-04-23T06:02:03;100244.53;;;11.10;nan
30967;BME280;17649;51.836;8.330;2023-04-23T06:05:05;100244.91;;;11.30;nan
30967;BME280;17649;51.836;8.330;2023-04-23T06:08:06;100240.41;;;11.34;nan
30967;BME280;17649;51.836;8.330;2023-04-23T06:11:06;100243.25;;;11.56;nan
30967;BME280;17649;51.836;8.330;2023-04-23T06:14:06;100238.25;;;11.80;nan
30967;BME280;17649;51.836;8.330;2023-04-23T06:17:07;100231.75;;;12.00;nan
30967;BME280;17649;51.836;8.330;2023-04-23T06:20:07;100228.63;;;11.95;nan
30967;BME280;17649;51.836;8.330;2023-04-23T06:23:11;100227.19;;;12.16;nan
30967;BME280;17649;51.836;8.330;2023-04-23T06:26:11;100214.72;;;12.47;nan
30967;BME280;17649;51.836;8.330;2023-04-23T06:29:12;100225.28;;;12.57;nan
30967;BME280;17649;51.836;8.330;2023-04-23T06:32:12;100226.38;;;12.78;nan
30967;BME280;17649;51.836;8.330;2023-04-23T06:35:13;100220.72;;;12.60;nan
30967;BME280;17649;51.836;8.330;2023-04-23T06:38:13;100225.78;;;12.62;nan
30967;BME280;17649;51.836;8.330;2023-04-23T06:41:14;100223.00;;;12.65;nan
30967;BME280;17649;51.836;8.330;2023-04-23T06:44:14;100216.09;;;13.13;nan
30967;BME280;17649;51.836;8.330;2023-04-23T06:47:15;100208.53;;;13.10;nan
30967;BME280;17649;51.836;8.330;2023-04-23T06:50:15;100201.34;;;13.13;nan
30967;BME280;17649;51.836;8.330;2023-04-23T06:53:16;100195.84;;;13.05;nan
30967;BME280;17649;51.836;8.330;2023-04-23T06:56:17;100191.25;;;13.09;nan
30967;BME280;17649;51.836;8.330;2023-04-23T06:59:17;100193.34;;;13.40;nan
30967;BME280;17649;51.836;8.330;2023-04-23T07:02:18;100199.63;;;13.49;nan
30967;BME280;17649;51.836;8.330;2023-04-23T07:05:18;100188.78;;;13.66;nan
30967;BME280;17649;51.836;8.330;2023-04-23T07:08:19;100188.25;;;13.74;nan
30967;BME280;17649;51.836;8.330;2023-04-23T07:11:22;100182.44;;;13.70;nan
30967;BME280;17649;51.836;8.330;2023-04-23T07:14:23;100177.38;;;13.80;nan
30967;BME280;17649;51.836;8.330;2023-04-23T07:17:24;100167.56;;;13.95;nan
30967;BME280;17649;51.836;8.330;2023-04-23T07:20:24;100166.34;;;13.65;nan
30967;BME280;17649;51.836;8.330;2023-04-23T07:23:25;100168.38;;;13.73;nan
30967;BME280;17649;51.836;8.330;2023-04-23T07:26:25;100158.25;;;14.03;nan
30967;BME280;17649;51.836;8.330;2023-04-23T07:29:26;100154.94;;;14.13;nan
30967;BME280;17649;51.836;8.330;2023-04-23T07:32:27;100149.16;;;14.31;nan
30967;BME280;17649;51.836;8.330;2023-04-23T07:35:27;100144.16;;;14.40;nan
30967;BME280;17649;51.836;8.330;2023-04-23T07:38:28;100146.63;;;14.41;nan
30967;BME280;17649;51.836;8.330;2023-04-23T07:41:28;100146.66;;;14.19;nan
30967;BME280;17649;51.836;8.330;2023-04-23T07:44:28;100139.81;;;14.29;nan
30967;BME280;17649;51.836;8.330;2023-04-23T07:47:29;100142.16;;;14.21;nan
30967;BME280;17649;51.836;8.330;2023-04-23T07:50:30;100141.94;;;14.46;nan
30967;BME280;17649;51.836;8.330;2023-04-23T07:53:30;100141.69;;;14.60;nan
30967;BME280;17649;51.836;8.330;2023-04-23T07:56:30;100154.81;;;14.59;nan
30967;BME280;17649;51.836;8.330;2023-04-23T07:59:31;100132.16;;;14.71;nan
30967;BME280;17649;51.836;8.330;2023-04-23T08:02:32;100139.25;;;14.80;nan
30967;BME280;17649;51.836;8.330;2023-04-23T08:05:32;100128.66;;;15.04;nan
30967;BME280;17649;51.836;8.330;2023-04-23T08:08:33;100129.66;;;14.80;nan
30967;BME280;17649;51.836;8.330;2023-04-23T08:11:33;100130.38;;;15.14;nan
30967;BME280;17649;51.836;8.330;2023-04-23T08:14:33;100124.03;;;15.28;nan
30967;BME280;17649;51.836;8.330;2023-04-23T08:17:34;100108.00;;;15.54;nan
30967;BME280;17649;51.836;8.330;2023-04-23T08:20:34;100109.16;;;15.82;nan
30967;BME280;17649;51.836;8.330;2023-04-23T08:23:34;100109.28;;;16.20;nan
30967;BME280;17649;51.836;8.330;2023-04-23T08:26:35;100114.69;;;16.88;nan
30967;BME280;17649;51.836;8.330;2023-04-23T08:29:35;100106.41;;;16.92;nan
30967;BME280;17649;51.836;8.330;2023-04-23T08:32:38;100092.13;;;16.96;nan
30967;BME280;17649;51.836;8.330;2023-04-23T08:35:38;100097.84;;;17.39;nan
30967;BME280;17649;51.836;8.330;2023-04-23T08:38:39;100090.66;;;17.50;nan
30967;BME280;17649;51.836;8.330;2023-04-23T08:41:40;100102.69;;;17.43;nan
30967;BME280;17649;51.836;8.330;2023-04-23T08:44:45;100095.13;;;17.31;nan
30967;BME280;17649;51.836;8.330;2023-04-23T08:47:45;100082.94;;;17.68;nan
30967;BME280;17649;51.836;8.330;2023-04-23T08:50:46;100091.16;;;17.26;nan
30967;BME280;17649;51.836;8.330;2023-04-23T08:53:50;100094.09;;;17.61;nan
30967;BME280;17649;51.836;8.330;2023-04-23T08:56:55;100086.78;;;17.74;nan
30967;BME280;17649;51.836;8.330;2023-04-23T08:59:59;100081.25;;;17.86;nan
30967;BME280;17649;51.836;8.330;2023-04-23T09:03:01;100077.03;;;18.31;nan
30967;BME280;17649;51.836;8.330;2023-04-23T09:06:01;100067.38;;;18.49;nan
30967;BME280;17649;51.836;8.330;2023-04-23T09:09:02;100066.75;;;18.65;nan
30967;BME280;17649;51.836;8.330;2023-04-23T09:12:05;100070.72;;;17.96;nan
30967;BME280;17649;51.836;8.330;2023-04-23T09:15:09;100067.63;;;17.07;nan
30967;BME280;17649;51.836;8.330;2023-04-23T09:18:10;100067.19;;;16.54;nan
30967;BME280;17649;51.836;8.330;2023-04-23T09:21:11;100072.44;;;17.02;nan
30967;BME280;17649;51.836;8.330;2023-04-23T09:24:11;100059.81;;;17.73;nan
30967;BME280;17649;51.836;8.330;2023-04-23T09:27:12;100053.94;;;18.16;nan
30967;BME280;17649;51.836;8.330;2023-04-23T09:30:12;100034.25;;;18.93;nan
30967;BME280;17649;51.836;8.330;2023-04-23T09:33:15;100041.44;;;18.73;nan
30967;BME280;17649;51.836;8.330;2023-04-23T09:36:19;100046.75;;;18.82;nan
30967;BME280;17649;51.836;8.330;2023-04-23T09:39:22;100049.00;;;18.76;nan
30967;BME280;17649;51.836;8.330;2023-04-23T09:42:23;100042.41;;;18.90;nan
30967;BME280;17649;51.836;8.330;2023-04-23T09:45:23;100051.78;;;19.19;nan
30967;BME280;17649;51.836;8.330;2023-04-23T09:48:40;100049.47;;;18.27;nan
30967;BME280;17649;51.836;8.330;2023-04-23T09:51:44;100039.97;;;18.26;nan
30967;BME280;17649;51.836;8.330;2023-04-23T09:54:45;100044.03;;;17.83;nan
30967;BME280;17649;51.836;8.330;2023-04-23T09:57:45;100039.41;;;17.67;nan
30967;BME280;17649;51.836;8.330;2023-04-23T10:00:46;100042.59;;;18.43;nan
30967;BME280;17649;51.836;8.330;2023-04-23T10:03:52;100035.19;;;19.10;nan
30967;BME280;17649;51.836;8.330;2023-04-23T10:06:53;100031.53;;;18.50;nan
30967;BME280;17649;51.836;8.330;2023-04-23T10:09:57;100026.31;;;18.04;nan
30967;BME280;17649;51.836;8.330;2023-04-23T10:12:58;100039.81;;;18.00;nan
30967;BME280;17649;51.836;8.330;2023-04-23T10:16:00;100029.38;;;18.45;nan
30967;BME280;17649;51.836;8.330;2023-04-23T10:19:02;100032.72;;;18.37;nan
30967;BME280;17649;51.836;8.330;2023-04-23T10:22:04;100035.84;;;18.23;nan
30967;BME280;17649;51.836;8.330;2023-04-23T10:25:09;100039.78;;;18.09;nan
30967;BME280;17649;51.836;8.330;2023-04-23T10:28:11;100035.81;;;18.51;nan
30967;BME280;17649;51.836;8.330;2023-04-23T10:31:13;100038.53;;;18.76;nan
30967;BME280;17649;51.836;8.330;2023-04-23T10:34:15;100040.53;;;19.26;nan
30967;BME280;17649;51.836;8.330;2023-04-23T10:37:16;100042.16;;;19.53;nan
30967;BME280;17649;51.836;8.330;2023-04-23T10:40:24;100036.44;;;19.50;nan
30967;BME280;17649;51.836;8.330;2023-04-23T10:43:28;100042.53;;;18.89;nan
30967;BME280;17649;51.836;8.330;2023-04-23T10:46:30;100035.78;;;19.30;nan
30967;BME280;17649;51.836;8.330;2023-04-23T10:49:32;100030.66;;;19.20;nan
30967;BME280;17649;51.836;8.330;2023-04-23T10:52:34;100020.94;;;19.39;nan
30967;BME280;17649;51.836;8.330;2023-04-23T10:55:34;100026.69;;;19.68;nan
30967;BME280;17649;51.836;8.330;2023-04-23T10:58:50;100019.19;;;20.32;nan
30967;BME280;17649;51.836;8.330;2023-04-23T11:01:51;100006.09;;;20.80;nan
30967;BME280;17649;51.836;8.330;2023-04-23T11:04:57;100009.81;;;20.29;nan
30967;BME280;17649;51.836;8.330;2023-04-23T11:11:06;100008.44;;;20.01;nan
30967;BME280;17649;51.836;8.330;2023-04-23T11:14:11;100003.22;;;20.09;nan
30967;BME280;17649;51.836;8.330;2023-04-23T11:17:16;100000.63;;;19.41;nan
30967;BME280;17649;51.836;8.330;2023-04-23T11:20:19;99996.50;;;20.22;nan
30967;BME280;17649;51.836;8.330;2023-04-23T11:23:29;99992.97;;;20.56;nan
30967;BME280;17649;51.836;8.330;2023-04-23T11:26:33;99991.34;;;20.71;nan
30967;BME280;17649;51.836;8.330;2023-04-23T11:29:35;99984.09;;;20.49;nan
30967;BME280;17649;51.836;8.330;2023-04-23T11:32:36;99985.06;;;20.48;nan
30967;BME280;17649;51.836;8.330;2023-04-23T11:35:36;99977.69;;;20.43;nan
30967;BME280;17649;51.836;8.330;2023-04-23T11:38:39;99967.63;;;20.96;nan
30967;BME280;17649;51.836;8.330;2023-04-23T11:41:40;99961.44;;;22.14;nan
30967;BME280;17649;51.836;8.330;2023-04-23T11:44:43;99957.31;;;22.20;nan
30967;BME280;17649;51.836;8.330;2023-04-23T11:47:44;99943.84;;;23.78;nan
30967;BME280;17649;51.836;8.330;2023-04-23T11:50:44;99953.91;;;24.04;nan
30967;BME280;17649;51.836;8.330;2023-04-23T11:53:46;99948.44;;;23.55;nan
30967;BME280;17649;51.836;8.330;2023-04-23T11:56:47;99947.19;;;23.07;nan
30967;BME280;17649;51.836;8.330;2023-04-23T11:59:47;99946.34;;;23.21;nan
30967;BME280;17649;51.836;8.330;2023-04-23T12:02:50;99946.25;;;22.24;nan
30967;BME280;17649;51.836;8.330;2023-04-23T12:05:51;99947.47;;;22.37;nan
30967;BME280;17649;51.836;8.330;2023-04-23T12:08:51;99932.38;;;22.45;nan
30967;BME280;17649;51.836;8.330;2023-04-23T12:11:51;99930.88;;;22.88;nan
30967;BME280;17649;51.836;8.330;2023-04-23T12:15:01;99925.78;;;22.49;nan
30967;BME280;17649;51.836;8.330;2023-04-23T12:18:08;99917.91;;;23.82;nan
30967;BME280;17649;51.836;8.330;2023-04-23T12:21:09;99915.16;;;23.25;nan
30967;BME280;17649;51.836;8.330;2023-04-23T12:24:09;99911.56;;;23.62;nan
30967;BME280;17649;51.836;8.330;2023-04-23T12:27:12;99912.06;;;22.92;nan
30967;BME280;17649;51.836;8.330;2023-04-23T12:30:13;99911.38;;;23.99;nan
30967;BME280;17649;51.836;8.330;2023-04-23T12:33:14;99903.78;;;24.32;nan
30967;BME280;17649;51.836;8.330;2023-04-23T12:36:14;99898.81;;;25.48;nan
30967;BME280;17649;51.836;8.330;2023-04-23T12:39:22;99900.16;;;25.78;nan
30967;BME280;17649;51.836;8.330;2023-04-23T12:42:22;99899.44;;;26.37;nan
30967;BME280;17649;51.836;8.330;2023-04-23T12:45:22;99891.59;;;24.59;nan
30967;BME280;17649;51.836;8.330;2023-04-23T12:48:23;99897.06;;;23.22;nan
30967;BME280;17649;51.836;8.330;2023-04-23T12:51:23;99890.06;;;22.01;nan
30967;BME280;17649;51.836;8.330;2023-04-23T12:54:24;99884.31;;;22.96;nan
30967;BME280;17649;51.836;8.330;2023-04-23T12:57:24;99887.19;;;23.60;nan
30967;BME280;17649;51.836;8.330;2023-04-23T13:00:25;99876.00;;;24.22;nan
30967;BME280;17649;51.836;8.330;2023-04-23T13:03:26;99880.03;;;24.18;nan
30967;BME280;17649;51.836;8.330;2023-04-23T13:06:26;99871.03;;;24.61;nan
30967;BME280;17649;51.836;8.330;2023-04-23T13:09:28;99865.31;;;25.95;nan
30967;BME280;17649;51.836;8.330;2023-04-23T13:12:29;99859.34;;;25.12;nan
30967;BME280;17649;51.836;8.330;2023-04-23T13:15:29;99846.63;;;25.42;nan
30967;BME280;17649;51.836;8.330;2023-04-23T13:18:29;99843.91;;;26.29;nan
30967;BME280;17649;51.836;8.330;2023-04-23T13:21:29;99837.81;;;25.89;nan
30967;BME280;17649;51.836;8.330;2023-04-23T13:24:30;99836.16;;;26.54;nan
30967;BME280;17649;51.836;8.330;2023-04-23T13:27:30;99825.19;;;26.04;nan
30967;BME280;17649;51.836;8.330;2023-04-23T13:30:30;99819.72;;;27.03;nan
30967;BME280;17649;51.836;8.330;2023-04-23T13:33:30;99820.28;;;25.95;nan
30967;BME280;17649;51.836;8.330;2023-04-23T13:36:31;99809.91;;;24.78;nan
30967;BME280;17649;51.836;8.330;2023-04-23T13:39:31;99808.66;;;23.90;nan
30967;BME280;17649;51.836;8.330;2023-04-23T13:42:31;99803.22;;;23.55;nan
30967;BME280;17649;51.836;8.330;2023-04-23T13:45:33;99800.34;;;21.80;nan
30967;BME280;17649;51.836;8.330;2023-04-23T13:48:33;99824.28;;;20.20;nan
30967;BME280;17649;51.836;8.330;2023-04-23T13:51:33;99833.31;;;17.71;nan
30967;BME280;17649;51.836;8.330;2023-04-23T13:54:34;99821.06;;;16.89;nan
30967;BME280;17649;51.836;8.330;2023-04-23T13:57:38;99847.66;;;15.39;nan
30967;BME280;17649;51.836;8.330;2023-04-23T14:00:40;99869.22;;;14.18;nan
30967;BME280;17649;51.836;8.330;2023-04-23T14:03:41;99879.16;;;14.13;nan
30967;BME280;17649;51.836;8.330;2023-04-23T14:06:41;99872.31;;;14.65;nan
30967;BME280;17649;51.836;8.330;2023-04-23T14:09:42;99849.63;;;16.53;nan
30967;BME280;17649;51.836;8.330;2023-04-23T14:12:43;99838.16;;;16.83;nan
30967;BME280;17649;51.836;8.330;2023-04-23T14:15:45;99829.44;;;18.44;nan
30967;BME280;17649;51.836;8.330;2023-04-23T14:18:45;99794.78;;;22.35;nan
30967;BME280;17649;51.836;8.330;2023-04-23T14:21:45;99778.97;;;25.26;nan
30967;BME280;17649;51.836;8.330;2023-04-23T14:24:48;99767.22;;;26.99;nan
30967;BME280;17649;51.836;8.330;2023-04-23T14:27:49;99766.13;;;28.08;nan
30967;BME280;17649;51.836;8.330;2023-04-23T14:30:51;99751.66;;;28.47;nan
30967;BME280;17649;51.836;8.330;2023-04-23T14:33:53;99749.56;;;30.74;nan
30967;BME280;17649;51.836;8.330;2023-04-23T14:36:55;99739.25;;;32.41;nan
30967;BME280;17649;51.836;8.330;2023-04-23T14:39:55;99743.13;;;30.99;nan
30967;BME280;17649;51.836;8.330;2023-04-23T14:42:55;99737.59;;;29.36;nan
30967;BME280;17649;51.836;8.330;2023-04-23T14:45:55;99747.03;;;29.51;nan
30967;BME280;17649;51.836;8.330;2023-04-23T14:48:56;99737.84;;;30.12;nan
30967;BME280;17649;51.836;8.330;2023-04-23T14:51:56;99725.78;;;30.09;nan
30967;BME280;17649;51.836;8.330;2023-04-23T14:54:56;99714.75;;;29.94;nan
30967;BME280;17649;51.836;8.330;2023-04-23T14:57:57;99710.72;;;28.78;nan
30967;BME280;17649;51.836;8.330;2023-04-23T15:00:57;99712.47;;;26.66;nan
30967;BME280;17649;51.836;8.330;2023-04-23T15:03:57;99709.47;;;20.53;nan
30967;BME280;17649;51.836;8.330;2023-04-23T15:06:57;99706.47;;;20.01;nan
30967;BME280;17649;51.836;8.330;2023-04-23T15:09:58;99715.75;;;18.55;nan
30967;BME280;17649;51.836;8.330;2023-04-23T15:13:23;99720.31;;;17.93;nan
30967;BME280;17649;51.836;8.330;2023-04-23T15:16:29;99721.72;;;18.13;nan
30967;BME280;17649;51.836;8.330;2023-04-23T15:19:33;99716.50;;;18.39;nan
30967;BME280;17649;51.836;8.330;2023-04-23T15:22:33;99729.03;;;18.62;nan
30967;BME280;17649;51.836;8.330;2023-04-23T15:25:33;99723.41;;;18.83;nan
30967;BME280;17649;51.836;8.330;2023-04-23T15:28:34;99710.19;;;18.92;nan
30967;BME280;17649;51.836;8.330;2023-04-23T15:31:34;99717.75;;;19.12;nan
30967;BME280;17649;51.836;8.330;2023-04-23T15:34:35;99706.50;;;19.35;nan
30967;BME280;17649;51.836;8.330;2023-04-23T15:37:35;99696.03;;;19.68;nan
30967;BME280;17649;51.836;8.330;2023-04-23T15:40:35;99689.44;;;19.88;nan
30967;BME280;17649;51.836;8.330;2023-04-23T15:43:41;99685.34;;;19.94;nan
30967;BME280;17649;51.836;8.330;2023-04-23T15:46:41;99683.81;;;20.16;nan
30967;BME280;17649;51.836;8.330;2023-04-23T15:49:41;99681.09;;;20.48;nan
30967;BME280;17649;51.836;8.330;2023-04-23T15:52:41;99675.09;;;20.71;nan
30967;BME280;17649;51.836;8.330;2023-04-23T15:55:41;99666.13;;;20.80;nan
30967;BME280;17649;51.836;8.330;2023-04-23T15:58:42;99672.84;;;20.82;nan
30967;BME280;17649;51.836;8.330;2023-04-23T16:01:42;99669.19;;;20.69;nan
30967;BME280;17649;51.836;8.330;2023-04-23T16:04:42;99666.78;;;20.51;nan
30967;BME280;17649;51.836;8.330;2023-04-23T16:07:42;99667.66;;;20.43;nan
30967;BME280;17649;51.836;8.330;2023-04-23T16:10:43;99661.56;;;20.35;nan
30967;BME280;17649;51.836;8.330;2023-04-23T16:13:43;99658.94;;;20.35;nan
30967;BME280;17649;51.836;8.330;2023-04-23T16:16:44;99655.22;;;20.21;nan
30967;BME280;17649;51.836;8.330;2023-04-23T16:19:44;99653.47;;;20.05;nan